Time;durP1;ratioP1;P1;durP2;ratioP2;P2;SDS_P1;SDS_P2;PMS_P1;PMS_P2;Temp;Humidity;BMP_temperature;BMP_pressure;BME280_temperature;BME280_humidity;BME280_pressure;Samples;Min_cycle;Max_cycle;Signal;HPM_P1;HPM_P2
2021/12/22 00:01:35;;;;;;;9.00;5.15;;;-1.30;87.40;;;;;;5068856;28;20086;-59
2021/12/22 00:04:02;;;;;;;8.65;5.38;;;-1.20;87.50;;;;;;5056783;28;20020;-58
2021/12/22 00:06:31;;;;;;;10.18;5.75;;;-1.30;87.50;;;;;;5069326;28;20127;-59
2021/12/22 00:08:58;;;;;;;11.85;6.13;;;-1.30;87.40;;;;;;5072297;28;20480;-59
2021/12/22 00:11:23;;;;;;;10.07;5.80;;;-1.30;87.50;;;;;;5074260;28;20051;-58
2021/12/22 00:13:49;;;;;;;9.40;5.35;;;-1.30;87.50;;;;;;5073398;28;20484;-58
2021/12/22 00:16:15;;;;;;;11.15;6.05;;;-1.30;87.50;;;;;;5070809;28;21509;-58
2021/12/22 00:18:40;;;;;;;10.35;5.70;;;-1.40;87.50;;;;;;5077235;28;20102;-59
2021/12/22 00:21:06;;;;;;;9.45;5.25;;;-1.40;87.60;;;;;;5076813;28;20048;-59
2021/12/22 00:23:32;;;;;;;11.13;5.97;;;-1.40;87.70;;;;;;5070960;28;20123;-59
2021/12/22 00:25:57;;;;;;;10.48;6.15;;;-1.40;87.70;;;;;;5072073;28;20024;-58
2021/12/22 00:28:23;;;;;;;10.15;5.55;;;-1.40;87.90;;;;;;5061564;28;20028;-59
2021/12/22 00:30:50;;;;;;;9.60;6.18;;;-1.50;88.00;;;;;;5078939;28;20377;-59
2021/12/22 00:33:17;;;;;;;11.43;6.20;;;-1.50;88.00;;;;;;5079106;28;20025;-58
2021/12/22 00:35:45;;;;;;;9.27;6.22;;;-1.50;88.10;;;;;;5071288;28;20112;-59
2021/12/22 00:38:19;;;;;;;9.50;6.20;;;-1.50;88.10;;;;;;5073980;28;20032;-59
2021/12/22 00:40:46;;;;;;;11.57;6.57;;;-1.50;88.20;;;;;;5067760;28;20141;-59
2021/12/22 00:43:12;;;;;;;11.52;6.15;;;-1.50;88.30;;;;;;5073783;28;20043;-59
2021/12/22 00:45:38;;;;;;;11.13;6.05;;;-1.50;88.30;;;;;;5071328;28;20020;-59
2021/12/22 00:48:05;;;;;;;11.50;6.55;;;-1.50;88.30;;;;;;5069892;28;20480;-59
2021/12/22 00:50:32;;;;;;;11.18;6.43;;;-1.50;88.30;;;;;;5069750;28;20032;-58
2021/12/22 00:52:57;;;;;;;12.85;7.15;;;-1.50;88.30;;;;;;5076651;28;20024;-58
2021/12/22 00:55:23;;;;;;;12.18;6.85;;;-1.50;88.30;;;;;;5070898;28;20032;-59
2021/12/22 00:57:50;;;;;;;13.00;7.03;;;-1.60;88.30;;;;;;5071192;28;20033;-59
2021/12/22 01:00:17;;;;;;;11.30;6.50;;;-1.60;88.40;;;;;;5071775;28;20044;-59
2021/12/22 01:02:43;;;;;;;10.68;6.28;;;-1.60;88.50;;;;;;5076573;28;20361;-59
2021/12/22 01:05:12;;;;;;;10.95;6.60;;;-1.60;88.60;;;;;;5070952;28;20531;-59
2021/12/22 01:07:38;;;;;;;10.82;6.90;;;-1.60;88.70;;;;;;5075171;28;20025;-59
2021/12/22 01:10:05;;;;;;;11.55;6.65;;;-1.60;88.70;;;;;;5073492;28;20107;-58
2021/12/22 01:12:30;;;;;;;14.88;7.53;;;-1.70;88.80;;;;;;5054628;28;20020;-58
2021/12/22 01:14:56;;;;;;;13.20;7.63;;;-1.70;88.90;;;;;;5071404;28;20040;-58
2021/12/22 01:17:21;;;;;;;13.23;7.10;;;-1.70;89.00;;;;;;5070870;28;20021;-60
2021/12/22 01:19:58;;;;;;;14.00;7.38;;;-1.70;89.10;;;;;;5066547;28;20044;-59
2021/12/22 01:22:32;;;;;;;16.02;7.85;;;-1.80;89.20;;;;;;5070806;28;20032;-59
2021/12/22 01:25:03;;;;;;;14.52;7.38;;;-1.80;89.30;;;;;;5076372;28;20024;-59
2021/12/22 01:27:36;;;;;;;18.23;8.52;;;-1.80;89.30;;;;;;5070950;28;20035;-59
2021/12/22 01:30:05;;;;;;;15.30;8.05;;;-1.80;89.40;;;;;;5073510;28;20404;-58
2021/12/22 01:32:30;;;;;;;16.20;8.18;;;-1.80;89.40;;;;;;5073516;28;20024;-59
2021/12/22 01:34:56;;;;;;;21.25;9.82;;;-1.80;89.40;;;;;;5058000;28;20115;-58
2021/12/22 01:37:22;;;;;;;15.43;8.20;;;-1.80;89.50;;;;;;5074305;28;20027;-59
2021/12/22 01:39:47;;;;;;;15.80;8.38;;;-1.90;89.50;;;;;;5072502;28;20100;-58
2021/12/22 01:42:13;;;;;;;15.27;8.68;;;-1.90;89.60;;;;;;5073362;28;20073;-59
2021/12/22 01:45:00;;;;;;;15.60;7.85;;;-1.90;89.60;;;;;;5073403;28;20063;-58
2021/12/22 01:50:16;;;;;;;21.90;10.38;;;-1.90;89.70;;;;;;5073598;28;20055;-59
2021/12/22 01:52:42;;;;;;;16.05;8.88;;;-1.90;89.70;;;;;;5073543;28;20020;-58
2021/12/22 01:55:27;;;;;;;20.00;9.88;;;-1.90;89.70;;;;;;5073185;28;20020;-58
2021/12/22 01:57:52;;;;;;;20.88;9.93;;;-1.90;89.80;;;;;;5070382;28;20073;-59
2021/12/22 02:00:21;;;;;;;21.70;11.27;;;-1.80;90.00;;;;;;5055932;28;20024;-59
2021/12/22 02:02:47;;;;;;;21.63;10.57;;;-1.80;90.00;;;;;;5070302;28;20025;-59
2021/12/22 02:05:12;;;;;;;21.45;9.77;;;-1.90;90.00;;;;;;5070373;28;20382;-59
2021/12/22 02:07:38;;;;;;;19.70;9.32;;;-1.80;90.10;;;;;;5080383;28;20491;-59
2021/12/22 02:10:22;;;;;;;18.90;10.10;;;-1.80;90.10;;;;;;5070171;28;20040;-59
2021/12/22 02:12:51;;;;;;;17.88;9.45;;;-1.80;90.10;;;;;;5073535;28;20114;-59
2021/12/22 02:15:17;;;;;;;18.77;8.43;;;-1.80;90.20;;;;;;5073072;28;20025;-58
2021/12/22 02:17:42;;;;;;;24.60;11.52;;;-1.80;90.20;;;;;;5075968;28;20017;-59
2021/12/22 02:20:09;;;;;;;21.63;10.73;;;-1.90;90.30;;;;;;5090871;28;20040;-58
2021/12/22 02:22:36;;;;;;;21.75;9.20;;;-1.80;90.40;;;;;;5079947;28;20023;-58
2021/12/22 02:25:11;;;;;;;19.92;9.85;;;-1.80;90.50;;;;;;5071618;28;20083;-58
2021/12/22 02:27:43;;;;;;;22.65;9.32;;;-1.80;90.50;;;;;;5058634;28;20060;-59
2021/12/22 02:30:16;;;;;;;19.42;9.48;;;-1.80;90.60;;;;;;5073935;28;20024;-58
2021/12/22 02:35:12;;;;;;;26.40;12.10;;;-1.90;90.60;;;;;;5084577;28;20044;-59
2021/12/22 02:37:44;;;;;;;21.83;10.73;;;-1.80;90.80;;;;;;5055385;28;20023;-59
2021/12/22 02:40:14;;;;;;;22.70;10.43;;;-1.90;90.80;;;;;;5072076;28;20024;-59
2021/12/22 02:42:41;;;;;;;20.95;10.70;;;-1.90;90.90;;;;;;5079343;28;20021;-59
2021/12/22 02:45:07;;;;;;;24.45;10.88;;;-1.90;90.90;;;;;;5073474;28;20078;-58
2021/12/22 02:47:33;;;;;;;19.40;9.85;;;-1.90;91.00;;;;;;5081776;28;20029;-59
2021/12/22 02:49:58;;;;;;;20.15;9.80;;;-1.90;91.00;;;;;;5055117;28;20016;-59
2021/12/22 02:52:31;;;;;;;21.42;10.02;;;-1.90;91.10;;;;;;5076005;28;20078;-59
2021/12/22 02:54:57;;;;;;;18.88;9.90;;;-1.90;91.10;;;;;;5074639;28;20379;-58
2021/12/22 02:57:30;;;;;;;21.55;9.95;;;-1.90;91.20;;;;;;5075898;28;20040;-58
2021/12/22 03:00:27;;;;;;;17.88;9.18;;;-1.90;91.30;;;;;;5073234;28;20012;-59
2021/12/22 03:03:06;;;;;;;24.70;11.20;;;-1.90;91.30;;;;;;5073073;28;20445;-59
2021/12/22 03:05:34;;;;;;;28.17;12.48;;;-2.00;91.40;;;;;;5073055;28;20024;-59
2021/12/22 03:07:59;;;;;;;25.13;12.50;;;-2.00;91.70;;;;;;5080276;28;20395;-58
2021/12/22 03:10:25;;;;;;;24.80;12.18;;;-2.00;92.00;;;;;;5072708;28;20032;-59
2021/12/22 03:12:52;;;;;;;23.60;11.65;;;-2.00;92.10;;;;;;5077488;28;20024;-58
2021/12/22 03:15:19;;;;;;;20.55;10.30;;;-2.00;92.10;;;;;;5076085;28;20050;-58
2021/12/22 03:17:46;;;;;;;22.60;10.93;;;-2.00;92.20;;;;;;5072887;28;20166;-59
2021/12/22 03:20:14;;;;;;;22.05;9.63;;;-2.00;92.20;;;;;;5074446;28;20528;-58
2021/12/22 03:22:43;;;;;;;18.83;8.82;;;-2.00;92.20;;;;;;5074167;28;20028;-59
2021/12/22 03:25:15;;;;;;;20.20;9.63;;;-2.00;92.30;;;;;;5075569;28;20017;-59
2021/12/22 03:27:46;;;;;;;19.08;9.25;;;-2.00;92.30;;;;;;5075207;28;20016;-59
2021/12/22 03:30:13;;;;;;;19.13;8.82;;;-2.00;92.30;;;;;;5078098;28;20051;-59
2021/12/22 03:32:39;;;;;;;18.40;8.48;;;-2.00;92.30;;;;;;5072508;28;20162;-58
2021/12/22 03:35:06;;;;;;;18.52;8.23;;;-2.00;92.30;;;;;;5076218;28;20016;-59
2021/12/22 03:37:32;;;;;;;19.15;7.63;;;-2.00;92.40;;;;;;5076739;28;20016;-58
2021/12/22 03:39:57;;;;;;;23.92;11.30;;;-2.00;92.40;;;;;;5072161;28;20032;-59
2021/12/22 03:42:23;;;;;;;20.50;9.73;;;-2.00;92.40;;;;;;5080382;28;20028;-59
2021/12/22 03:44:48;;;;;;;23.77;10.60;;;-2.00;92.50;;;;;;5080668;28;20019;-59
2021/12/22 03:47:14;;;;;;;27.38;10.80;;;-2.00;92.60;;;;;;5075023;28;20020;-59
2021/12/22 03:49:40;;;;;;;18.70;9.50;;;-2.00;92.60;;;;;;5072116;28;20110;-58
2021/12/22 03:52:06;;;;;;;22.63;10.32;;;-2.00;92.70;;;;;;5075021;28;20023;-59
2021/12/22 03:54:32;;;;;;;21.42;9.73;;;-2.10;92.80;;;;;;5074750;28;20051;-59
2021/12/22 03:56:57;;;;;;;21.10;10.48;;;-2.00;92.90;;;;;;5071998;28;20542;-58
2021/12/22 03:59:24;;;;;;;18.30;9.43;;;-2.10;92.90;;;;;;5056897;28;20028;-59
2021/12/22 04:01:50;;;;;;;22.98;11.15;;;-2.10;93.00;;;;;;5071965;28;20025;-59
2021/12/22 04:04:18;;;;;;;22.15;11.07;;;-2.10;93.00;;;;;;5071690;28;20379;-59
2021/12/22 04:06:45;;;;;;;21.95;11.23;;;-2.10;93.20;;;;;;5075075;28;20020;-59
2021/12/22 04:09:13;;;;;;;28.52;12.75;;;-2.10;93.40;;;;;;5074455;28;20022;-58
2021/12/22 04:11:38;;;;;;;30.25;13.77;;;-2.10;93.60;;;;;;5077134;28;20020;-59
2021/12/22 04:14:04;;;;;;;35.38;15.57;;;-2.10;94.00;;;;;;5074773;28;20032;-59
2021/12/22 04:16:30;;;;;;;31.88;14.75;;;-2.10;94.40;;;;;;5071772;28;20037;-59
2021/12/22 04:18:56;;;;;;;26.27;12.80;;;-2.20;94.80;;;;;;5071839;28;20024;-58
2021/12/22 04:21:21;;;;;;;28.42;14.60;;;-2.20;95.10;;;;;;5077355;28;20506;-59
2021/12/22 04:23:47;;;;;;;36.63;14.38;;;-2.20;95.40;;;;;;5076365;28;20061;-59
2021/12/22 04:26:13;;;;;;;30.30;13.57;;;-2.20;95.80;;;;;;5074136;28;20021;-59
2021/12/22 04:28:40;;;;;;;32.10;15.55;;;-2.30;96.10;;;;;;5074721;28;20025;-58
2021/12/22 04:31:06;;;;;;;32.72;15.43;;;-2.30;96.50;;;;;;5071384;28;20020;-59
2021/12/22 04:33:31;;;;;;;37.03;16.38;;;-2.30;96.80;;;;;;5071284;28;20031;-59
2021/12/22 04:35:57;;;;;;;32.60;14.25;;;-2.30;97.00;;;;;;5074240;28;20036;-59
2021/12/22 04:38:23;;;;;;;28.23;14.63;;;-2.30;97.30;;;;;;5070960;28;20031;-59
2021/12/22 04:40:49;;;;;;;26.00;12.90;;;-2.30;97.50;;;;;;5071305;28;20016;-59
2021/12/22 04:43:15;;;;;;;25.27;12.45;;;-2.30;97.70;;;;;;5073672;28;20028;-59
2021/12/22 04:45:41;;;;;;;36.20;15.10;;;-2.30;97.80;;;;;;5071065;28;20066;-59
2021/12/22 04:48:06;;;;;;;30.40;14.30;;;-2.30;98.20;;;;;;5070661;28;20020;-59
2021/12/22 04:50:33;;;;;;;38.25;15.52;;;-2.30;98.60;;;;;;5073000;28;20025;-58
2021/12/22 04:53:05;;;;;;;35.45;14.68;;;-2.30;98.90;;;;;;5077144;28;20034;-58
2021/12/22 04:55:30;;;;;;;32.63;15.10;;;-2.30;99.20;;;;;;5078419;28;20099;-58
2021/12/22 04:57:57;;;;;;;33.90;15.10;;;-2.30;99.50;;;;;;5073818;28;20104;-59
2021/12/22 05:00:26;;;;;;;29.75;14.95;;;-2.40;99.70;;;;;;5070856;28;20020;-57
2021/12/22 05:02:53;;;;;;;28.53;13.80;;;-2.30;99.90;;;;;;5071015;28;20023;-59
2021/12/22 05:05:19;;;;;;;33.72;15.38;;;-2.30;99.90;;;;;;5076475;28;20062;-58
2021/12/22 05:07:47;;;;;;;34.92;15.55;;;-2.30;99.90;;;;;;5072887;28;20021;-59
2021/12/22 05:10:13;;;;;;;35.30;17.58;;;-2.30;99.90;;;;;;5070958;28;20012;-59
2021/12/22 05:12:39;;;;;;;31.67;15.85;;;-2.30;99.90;;;;;;5078934;28;20055;-58
2021/12/22 05:15:05;;;;;;;28.15;14.13;;;-2.30;99.90;;;;;;5058501;28;20452;-59
2021/12/22 05:18:14;;;;;;;41.55;16.30;;;-2.30;99.90;;;;;;5073718;28;20480;-58
2021/12/22 05:20:19;;;;;;;33.55;15.40;;;-2.30;99.90;;;;;;5072349;28;20102;-58
2021/12/22 05:22:45;;;;;;;36.25;15.73;;;-2.40;99.90;;;;;;5070653;28;20021;-59
2021/12/22 05:25:11;;;;;;;36.58;15.63;;;-2.40;99.90;;;;;;5070788;28;20465;-59
2021/12/22 05:27:37;;;;;;;32.13;14.60;;;-2.40;99.90;;;;;;5076990;28;20020;-58
2021/12/22 05:30:05;;;;;;;31.33;15.15;;;-2.40;99.90;;;;;;5070620;28;20032;-58
2021/12/22 05:32:32;;;;;;;36.25;15.55;;;-2.40;99.90;;;;;;5072207;28;20021;-58
2021/12/22 05:34:59;;;;;;;34.40;15.63;;;-2.40;99.90;;;;;;5074412;28;20422;-59
2021/12/22 05:37:25;;;;;;;34.83;16.30;;;-2.40;99.90;;;;;;5078935;28;20054;-58
2021/12/22 05:39:51;;;;;;;31.00;14.68;;;-2.40;99.90;;;;;;5071263;28;20479;-58
2021/12/22 05:42:16;;;;;;;35.63;16.25;;;-2.40;99.90;;;;;;5074404;28;20020;-58
2021/12/22 05:44:42;;;;;;;36.40;15.63;;;-2.40;99.90;;;;;;5075819;28;20118;-59
2021/12/22 05:47:08;;;;;;;35.33;16.20;;;-2.40;99.90;;;;;;5074558;28;20087;-58
2021/12/22 05:49:34;;;;;;;31.58;15.77;;;-2.40;99.90;;;;;;5074632;28;20025;-59
2021/12/22 05:51:59;;;;;;;36.20;17.13;;;-2.40;99.90;;;;;;5073338;28;20387;-58
2021/12/22 05:54:25;;;;;;;32.80;15.57;;;-2.40;99.90;;;;;;5071428;28;20029;-59
2021/12/22 05:56:50;;;;;;;35.03;15.90;;;-2.40;99.90;;;;;;5075294;28;20031;-58
2021/12/22 05:59:16;;;;;;;31.42;15.30;;;-2.40;99.90;;;;;;5077330;28;20029;-58
2021/12/22 06:01:41;;;;;;;30.88;16.05;;;-2.40;99.90;;;;;;5077496;28;20020;-59
2021/12/22 06:04:07;;;;;;;32.65;15.45;;;-2.40;99.90;;;;;;5072918;28;20017;-58
2021/12/22 06:06:33;;;;;;;36.15;15.48;;;-2.40;99.90;;;;;;5075388;28;20472;-59
2021/12/22 06:08:58;;;;;;;32.70;15.95;;;-2.40;99.90;;;;;;5083215;28;20044;-59
2021/12/22 06:11:24;;;;;;;34.15;15.73;;;-2.40;99.90;;;;;;5073856;28;20055;-58
2021/12/22 06:13:50;;;;;;;29.90;15.00;;;-2.40;99.90;;;;;;5073818;28;20035;-58
2021/12/22 06:16:15;;;;;;;34.35;15.52;;;-2.40;99.90;;;;;;5079538;28;20037;-58
2021/12/22 06:18:44;;;;;;;31.45;17.33;;;-2.40;99.90;;;;;;5070069;28;20048;-58
2021/12/22 06:21:11;;;;;;;31.23;13.98;;;-2.50;99.90;;;;;;5062678;28;20053;-59
2021/12/22 06:23:37;;;;;;;35.45;16.45;;;-2.50;99.90;;;;;;5080430;28;20031;-59
2021/12/22 06:26:02;;;;;;;31.40;15.43;;;-2.50;99.90;;;;;;5075017;28;20024;-59
2021/12/22 06:28:28;;;;;;;30.38;14.63;;;-2.50;99.90;;;;;;5079960;28;20024;-58
2021/12/22 06:30:54;;;;;;;31.67;15.13;;;-2.50;99.90;;;;;;5080670;28;20530;-58
2021/12/22 06:33:19;;;;;;;33.03;14.98;;;-2.50;99.90;;;;;;5074226;28;20507;-58
2021/12/22 06:35:48;;;;;;;28.30;14.15;;;-2.50;99.90;;;;;;5074712;28;20051;-59
2021/12/22 06:38:17;;;;;;;35.47;15.60;;;-2.50;99.90;;;;;;5074642;28;20036;-57
2021/12/22 06:40:43;;;;;;;27.58;13.75;;;-2.50;99.90;;;;;;5074500;28;20128;-58
2021/12/22 06:43:08;;;;;;;30.58;14.85;;;-2.50;99.90;;;;;;5074287;28;20031;-59
2021/12/22 06:45:34;;;;;;;33.58;14.40;;;-2.60;99.90;;;;;;5073657;28;20119;-59
2021/12/22 06:48:00;;;;;;;31.27;14.88;;;-2.60;99.90;;;;;;5068616;28;20071;-58
2021/12/22 06:50:26;;;;;;;30.10;14.50;;;-2.60;99.90;;;;;;5078433;28;20036;-58
2021/12/22 06:52:51;;;;;;;32.83;15.25;;;-2.60;99.90;;;;;;5074354;28;20103;-58
2021/12/22 06:55:17;;;;;;;31.00;14.68;;;-2.60;99.90;;;;;;5093493;28;20079;-58
2021/12/22 06:57:43;;;;;;;33.17;15.30;;;-2.60;99.90;;;;;;5076260;28;20017;-58
2021/12/22 07:00:11;;;;;;;26.92;13.82;;;-2.60;99.90;;;;;;5093275;28;20031;-58
2021/12/22 07:02:38;;;;;;;32.15;13.32;;;-2.60;99.90;;;;;;5094690;28;20024;-58
2021/12/22 07:05:05;;;;;;;29.67;14.93;;;-2.60;99.90;;;;;;5094338;28;20027;-58
2021/12/22 07:07:31;;;;;;;32.55;15.48;;;-2.60;99.90;;;;;;5094175;28;20016;-59
2021/12/22 07:09:56;;;;;;;31.27;13.75;;;-2.70;99.90;;;;;;5093918;28;20028;-58
2021/12/22 07:12:22;;;;;;;33.70;14.73;;;-2.70;99.90;;;;;;5093861;28;20028;-58
2021/12/22 07:14:48;;;;;;;28.08;12.65;;;-2.70;99.90;;;;;;5094134;28;20059;-58
2021/12/22 07:17:13;;;;;;;29.38;14.20;;;-2.70;99.90;;;;;;5089910;28;20391;-59
2021/12/22 07:19:39;;;;;;;27.27;13.32;;;-2.70;99.90;;;;;;5091406;28;20480;-58
2021/12/22 07:22:05;;;;;;;30.38;15.05;;;-2.60;99.90;;;;;;5092674;28;20036;-58
2021/12/22 07:24:32;;;;;;;30.75;15.38;;;-2.70;99.90;;;;;;5092027;28;20028;-58
2021/12/22 07:26:57;;;;;;;29.10;13.50;;;-2.70;99.90;;;;;;5092639;28;20028;-59
2021/12/22 07:29:23;;;;;;;27.15;12.55;;;-2.70;99.90;;;;;;5075505;28;20024;-58
2021/12/22 07:31:48;;;;;;;28.80;13.75;;;-2.70;99.90;;;;;;5093715;28;20024;-57
2021/12/22 07:34:55;;;;;;;29.13;14.30;;;-2.70;99.90;;;;;;5075718;28;20386;-58
2021/12/22 07:37:36;;;;;;;30.08;14.90;;;-2.70;99.90;;;;;;5093249;28;20055;-58
2021/12/22 07:40:03;;;;;;;28.95;13.27;;;-2.80;99.90;;;;;;5093664;28;20476;-58
2021/12/22 07:42:28;;;;;;;29.05;14.68;;;-2.80;99.90;;;;;;5093571;28;20042;-58
2021/12/22 07:44:54;;;;;;;30.02;14.18;;;-2.80;99.90;;;;;;5093487;28;20028;-57
2021/12/22 07:47:19;;;;;;;30.63;14.07;;;-2.80;99.90;;;;;;5074998;28;20384;-58
2021/12/22 07:49:45;;;;;;;29.58;15.05;;;-2.80;99.90;;;;;;5093299;28;20066;-58
2021/12/22 07:52:10;;;;;;;37.13;15.25;;;-2.80;99.90;;;;;;5092084;28;20432;-58
2021/12/22 07:54:36;;;;;;;31.98;15.27;;;-2.80;99.90;;;;;;5091466;28;20028;-59
2021/12/22 07:57:01;;;;;;;26.42;12.93;;;-2.80;99.90;;;;;;5093049;28;20055;-58
2021/12/22 07:59:27;;;;;;;30.33;13.85;;;-2.80;99.90;;;;;;5091900;28;20115;-59
2021/12/22 08:01:52;;;;;;;32.00;14.32;;;-2.80;99.90;;;;;;5091715;28;20402;-58
2021/12/22 08:04:18;;;;;;;30.20;13.43;;;-2.80;99.90;;;;;;5091703;28;20032;-59
2021/12/22 08:06:43;;;;;;;29.83;13.05;;;-2.80;99.90;;;;;;5093124;28;20020;-59
2021/12/22 08:09:09;;;;;;;32.65;14.32;;;-2.70;99.90;;;;;;5093638;28;20256;-59
2021/12/22 08:11:35;;;;;;;28.08;13.88;;;-2.80;99.90;;;;;;5093061;28;20440;-58
2021/12/22 08:14:00;;;;;;;25.52;13.30;;;-2.70;99.90;;;;;;5091164;28;20081;-59
2021/12/22 08:16:26;;;;;;;27.23;12.95;;;-2.70;99.90;;;;;;5091184;28;20032;-58
2021/12/22 08:18:51;;;;;;;22.73;12.63;;;-2.70;99.90;;;;;;5086491;28;20091;-58
2021/12/22 08:21:17;;;;;;;25.33;12.65;;;-2.70;99.90;;;;;;5091210;28;20048;-59
2021/12/22 08:23:42;;;;;;;23.15;12.57;;;-2.60;99.90;;;;;;5091127;28;20028;-58
2021/12/22 08:26:08;;;;;;;31.88;13.45;;;-2.60;99.90;;;;;;5101442;28;20024;-58
2021/12/22 08:28:33;;;;;;;26.38;12.75;;;-2.60;99.90;;;;;;5113037;28;20038;-58
2021/12/22 08:30:59;;;;;;;28.55;13.15;;;-2.50;99.90;;;;;;5097317;28;20024;-59
2021/12/22 08:33:29;;;;;;;32.15;13.18;;;-2.50;99.90;;;;;;5073992;28;20031;-58
2021/12/22 08:38:51;;;;;;;23.52;13.07;;;-2.40;99.90;;;;;;5091380;28;20086;-59
2021/12/22 08:41:21;;;;;;;24.52;12.95;;;-2.40;99.90;;;;;;5092387;28;20048;-58
2021/12/22 08:43:47;;;;;;;28.85;13.35;;;-2.40;99.90;;;;;;5092445;28;20115;-58
2021/12/22 08:46:12;;;;;;;27.20;13.68;;;-2.30;99.90;;;;;;5092744;28;20115;-58
2021/12/22 08:48:38;;;;;;;28.23;13.00;;;-2.30;99.90;;;;;;5092485;28;20024;-59
2021/12/22 08:51:03;;;;;;;31.65;15.05;;;-2.30;99.90;;;;;;5090118;28;20031;-58
2021/12/22 08:53:29;;;;;;;32.03;15.90;;;-2.30;99.90;;;;;;5069994;28;20048;-58
2021/12/22 08:55:54;;;;;;;31.48;15.13;;;-2.20;99.90;;;;;;5087927;28;20028;-58
2021/12/22 08:58:20;;;;;;;28.60;14.27;;;-2.20;99.90;;;;;;5091276;28;20146;-58
2021/12/22 09:00:46;;;;;;;27.17;15.13;;;-2.10;99.90;;;;;;5074153;28;20391;-58
2021/12/22 09:03:11;;;;;;;28.88;13.55;;;-2.10;99.90;;;;;;5091430;28;20158;-59
2021/12/22 09:05:37;;;;;;;28.17;14.15;;;-2.00;99.90;;;;;;5087953;28;20494;-59
2021/12/22 09:08:02;;;;;;;30.92;14.30;;;-2.00;99.90;;;;;;5084495;28;20468;-58
2021/12/22 09:10:28;;;;;;;24.33;13.80;;;-1.90;99.90;;;;;;5064486;28;20031;-58
2021/12/22 09:12:54;;;;;;;24.70;13.57;;;-1.90;99.90;;;;;;5080620;28;20097;-59
2021/12/22 09:15:19;;;;;;;28.58;14.10;;;-1.80;99.90;;;;;;5078697;28;20475;-59
2021/12/22 09:17:45;;;;;;;24.20;13.25;;;-1.70;99.90;;;;;;5084505;28;20020;-59
2021/12/22 09:20:10;;;;;;;26.70;13.57;;;-1.70;99.90;;;;;;5088207;28;20119;-58
2021/12/22 09:22:36;;;;;;;25.98;14.18;;;-1.70;99.90;;;;;;5091590;28;20028;-59
2021/12/22 09:25:03;;;;;;;26.73;13.25;;;-1.60;99.90;;;;;;5090725;28;20031;-58
2021/12/22 09:27:28;;;;;;;34.53;15.27;;;-1.60;99.90;;;;;;5091429;28;20016;-58
2021/12/22 09:29:54;;;;;;;26.92;14.25;;;-1.50;99.90;;;;;;5091887;28;20047;-59
2021/12/22 09:32:21;;;;;;;31.45;14.82;;;-1.40;99.90;;;;;;5091767;28;20062;-59
2021/12/22 09:34:49;;;;;;;27.73;14.90;;;-1.40;99.90;;;;;;5094659;28;20453;-58
2021/12/22 09:37:16;;;;;;;32.50;14.60;;;-1.30;99.90;;;;;;5095393;28;20031;-59
2021/12/22 09:39:42;;;;;;;21.67;13.05;;;-1.20;99.90;;;;;;5095957;28;20111;-59
2021/12/22 09:42:08;;;;;;;23.77;12.93;;;-1.20;99.90;;;;;;5095943;28;20499;-58
2021/12/22 09:44:42;;;;;;;25.42;13.10;;;-1.10;99.90;;;;;;5095637;28;20028;-58
2021/12/22 09:47:08;;;;;;;25.98;13.73;;;-1.00;99.90;;;;;;5096033;28;20048;-59
2021/12/22 09:54:50;;;;;;;21.90;12.85;;;-0.80;99.90;;;;;;5095206;28;20039;-58
2021/12/22 09:57:19;;;;;;;25.97;13.37;;;-0.70;99.90;;;;;;5077298;28;20024;-59
2021/12/22 09:59:49;;;;;;;23.13;12.90;;;-0.70;99.90;;;;;;5091593;28;20259;-58
2021/12/22 10:02:18;;;;;;;22.90;12.35;;;-0.60;99.90;;;;;;5094566;28;20036;-58
2021/12/22 10:04:44;;;;;;;25.05;13.60;;;-0.60;99.90;;;;;;5094578;28;20482;-58
2021/12/22 10:07:17;;;;;;;27.48;12.43;;;-0.50;99.90;;;;;;5095161;28;20027;-58
2021/12/22 10:09:47;;;;;;;22.75;12.63;;;-0.50;99.90;;;;;;5095427;28;20012;-58
2021/12/22 10:12:16;;;;;;;;;;;-0.50;99.90;;;;;;5095869;28;20016;-58
2021/12/22 10:15:00;;;;;;;18.65;11.95;;;-0.50;99.90;;;;;;5090925;28;19908;-59
2021/12/22 10:17:40;;;;;;;24.10;11.82;;;-0.50;99.90;;;;;;5092183;28;20028;-59
2021/12/22 10:20:15;;;;;;;23.40;12.23;;;-0.40;99.90;;;;;;5097965;28;20402;-58
2021/12/22 10:22:44;;;;;;;19.60;11.63;;;-0.40;99.90;;;;;;5103194;28;20036;-59
2021/12/22 10:25:22;;;;;;;22.50;12.18;;;-0.40;99.90;;;;;;5091361;28;20031;-58
2021/12/22 10:28:15;;;;;;;19.55;11.75;;;-0.30;99.90;;;;;;5097069;28;20383;-59
2021/12/22 10:30:42;;;;;;;22.42;11.00;;;-0.30;99.90;;;;;;5100687;28;20186;-58
2021/12/22 10:33:17;;;;;;;22.08;11.00;;;-0.20;99.90;;;;;;5107038;28;20487;-58
2021/12/22 10:35:52;;;;;;;19.63;11.23;;;-0.20;99.90;;;;;;5094333;28;20024;-58
2021/12/22 10:38:27;;;;;;;20.08;11.63;;;-0.10;99.90;;;;;;5088001;28;20012;-58
2021/12/22 10:41:04;;;;;;;18.58;11.73;;;0.00;99.90;;;;;;5107472;28;20394;-58
2021/12/22 10:43:33;;;;;;;19.77;11.07;;;0.10;99.90;;;;;;5109060;28;20490;-58
2021/12/22 10:46:02;;;;;;;21.17;10.70;;;0.10;99.90;;;;;;5077253;28;20016;-58
2021/12/22 10:51:23;;;;;;;19.10;11.20;;;0.40;99.90;;;;;;5110580;28;20559;-59
2021/12/22 10:53:50;;;;;;;18.00;10.63;;;0.60;99.90;;;;;;5064465;28;20479;-58
2021/12/22 10:56:27;;;;;;;23.02;10.82;;;0.70;99.90;;;;;;5105977;28;20383;-58
2021/12/22 10:59:19;;;;;;;21.25;10.25;;;0.90;99.70;;;;;;5100784;28;20019;-58
2021/12/22 11:01:54;;;;;;;16.92;10.60;;;1.00;99.60;;;;;;5079147;28;20147;-58
2021/12/22 11:04:29;;;;;;;16.83;9.60;;;1.30;99.30;;;;;;5105529;28;20023;-58
2021/12/22 11:07:04;;;;;;;16.40;9.88;;;1.50;99.20;;;;;;5092280;28;20476;-58
2021/12/22 11:09:34;;;;;;;18.60;9.82;;;2.00;98.90;;;;;;5110441;28;20031;-58
2021/12/22 11:12:00;;;;;;;14.52;9.43;;;2.30;97.80;;;;;;5081325;28;20055;-59
2021/12/22 11:14:36;;;;;;;19.95;10.05;;;2.60;97.20;;;;;;5104418;28;20115;-58
2021/12/22 11:17:06;;;;;;;16.10;8.93;;;2.80;96.50;;;;;;5095807;28;20035;-59
2021/12/22 11:19:33;;;;;;;;;;;2.90;96.00;;;;;;5095549;28;20028;-58
2021/12/22 11:22:12;;;;;;;15.07;9.00;;;3.10;95.80;;;;;;5113569;28;19911;-59
2021/12/22 11:24:49;;;;;;;17.75;9.25;;;3.40;95.40;;;;;;5084530;28;20024;-58
2021/12/22 11:27:23;;;;;;;14.68;8.43;;;3.60;94.10;;;;;;5094734;28;20024;-58
2021/12/22 11:29:52;;;;;;;13.68;8.77;;;3.70;94.10;;;;;;5081733;28;20019;-59
2021/12/22 11:32:20;;;;;;;14.10;8.27;;;3.80;93.40;;;;;;5096049;28;20426;-58
2021/12/22 11:34:53;;;;;;;15.73;8.77;;;3.80;93.20;;;;;;5094215;28;20104;-58
2021/12/22 11:37:20;;;;;;;13.98;8.90;;;4.00;92.80;;;;;;5090546;28;20032;-59
2021/12/22 11:39:46;;;;;;;15.90;8.43;;;4.30;92.20;;;;;;5092129;28;20110;-59
2021/12/22 11:42:14;;;;;;;15.80;9.30;;;4.40;91.30;;;;;;5090574;28;20020;-58
2021/12/22 11:44:44;;;;;;;14.43;8.13;;;4.50;91.00;;;;;;5092596;28;20020;-59
2021/12/22 11:47:12;;;;;;;14.35;8.63;;;4.70;90.70;;;;;;5093575;28;20031;-59
2021/12/22 11:49:54;;;;;;;13.52;8.32;;;4.70;90.00;;;;;;5092373;28;20107;-59
2021/12/22 11:52:51;;;;;;;13.73;9.05;;;4.70;88.30;;;;;;5091182;28;20068;-59
2021/12/22 11:55:23;;;;;;;13.63;8.45;;;5.20;88.70;;;;;;5091668;28;20070;-59
2021/12/22 11:58:11;;;;;;;12.02;8.30;;;6.10;87.20;;;;;;5095285;28;20023;-59
2021/12/22 12:00:38;;;;;;;14.65;8.85;;;6.90;82.70;;;;;;5074224;28;20036;-59
2021/12/22 12:03:40;;;;;;;14.20;7.82;;;7.80;80.00;;;;;;5107547;28;20024;-59
2021/12/22 12:06:08;;;;;;;13.23;7.80;;;9.00;77.90;;;;;;5054791;28;20384;-57
2021/12/22 12:08:35;;;;;;;11.30;7.90;;;9.40;71.30;;;;;;5090271;28;20051;-57
2021/12/22 12:11:02;;;;;;;12.40;7.95;;;9.20;67.60;;;;;;5092576;28;20020;-57
2021/12/22 12:13:36;;;;;;;15.70;8.23;;;9.20;68.00;;;;;;5092547;28;20028;-57
2021/12/22 12:22:10;;;;;;;11.65;7.95;;;9.30;65.30;;;;;;5092940;28;20046;-57
2021/12/22 12:24:45;;;;;;;11.38;7.25;;;9.30;65.30;;;;;;5092660;28;20058;-57
2021/12/22 12:27:32;;;;;;;10.85;8.27;;;9.80;65.70;;;;;;5092346;28;20425;-57
2021/12/22 12:29:59;;;;;;;10.45;7.45;;;10.00;63.30;;;;;;5092743;28;20020;-57
2021/12/22 12:32:40;;;;;;;13.43;8.57;;;10.10;63.20;;;;;;5092768;28;20400;-57
2021/12/22 12:35:17;;;;;;;12.95;7.55;;;10.80;62.10;;;;;;5092731;28;20042;-57
2021/12/22 12:38:00;;;;;;;14.38;8.35;;;10.30;59.90;;;;;;5092328;28;20399;-57
2021/12/22 12:40:57;;;;;;;9.20;6.60;;;9.60;62.20;;;;;;5092548;28;20070;-57
2021/12/22 12:43:48;;;;;;;13.25;6.88;;;9.90;64.40;;;;;;5092139;28;20431;-57
2021/12/22 12:46:35;;;;;;;9.45;6.63;;;10.20;63.10;;;;;;5092460;28;20016;-57
2021/12/22 12:49:04;;;;;;;11.50;7.15;;;10.40;63.50;;;;;;5092460;28;20495;-57
2021/12/22 12:51:42;;;;;;;12.75;7.88;;;10.20;61.10;;;;;;5092319;28;20024;-57
2021/12/22 12:54:17;;;;;;;11.90;8.18;;;10.00;61.80;;;;;;5092192;28;20024;-57
2021/12/22 12:56:49;;;;;;;14.82;8.75;;;9.60;61.00;;;;;;5092474;28;20024;-57
2021/12/22 12:59:27;;;;;;;12.45;7.80;;;9.10;62.40;;;;;;5092334;28;20111;-57
2021/12/22 13:01:52;;;;;;;10.55;7.85;;;9.00;63.90;;;;;;5075516;28;20028;-57
2021/12/22 13:04:30;;;;;;;11.93;8.13;;;9.30;63.50;;;;;;5073904;28;20386;-57